createdAt,value
2017-07-22T00:09:34.130Z,0
2017-07-22T00:10:36.233Z,0
2017-07-22T00:12:27.870Z,0
2017-07-22T00:13:29.466Z,0
2017-07-22T00:15:21.528Z,0
2017-07-22T00:16:23.123Z,0
2017-07-22T00:18:14.761Z,0
2017-07-22T00:19:16.358Z,0
2017-07-22T00:21:08.301Z,0
2017-07-22T00:22:09.887Z,0
2017-07-22T00:24:01.795Z,0
2017-07-22T00:25:03.346Z,0
2017-07-22T00:26:55.545Z,0
2017-07-22T00:27:57.104Z,0
2017-07-22T00:29:49.015Z,0
2017-07-22T00:30:50.577Z,0
2017-07-22T00:32:42.795Z,0
2017-07-22T00:33:44.353Z,0
2017-07-22T00:35:36.268Z,0
2017-07-22T00:36:37.815Z,0
2017-07-22T00:38:30.029Z,0
2017-07-22T00:39:31.594Z,0
2017-07-22T00:41:24.209Z,0
2017-07-22T00:42:26.609Z,0
2017-07-22T00:44:19.515Z,0
2017-07-22T00:45:21.128Z,0
2017-07-22T00:47:14.017Z,0
2017-07-22T00:48:15.574Z,0
2017-07-22T00:50:07.690Z,0
2017-07-22T00:51:09.251Z,0
2017-07-22T00:53:01.173Z,0
2017-07-22T00:54:02.896Z,0
2017-07-22T00:55:55.132Z,0
2017-07-22T00:56:56.690Z,0
2017-07-22T00:58:48.605Z,0
2017-07-22T00:59:50.163Z,0
2017-07-22T01:01:42.487Z,0
2017-07-22T01:02:44.047Z,0
2017-07-22T01:04:36.657Z,0
2017-07-22T01:05:38.218Z,0
2017-07-22T01:07:30.339Z,0
2017-07-22T01:08:31.905Z,0
2017-07-22T01:10:23.819Z,0
2017-07-22T01:11:25.903Z,0
2017-07-22T01:13:17.656Z,0
2017-07-22T01:14:19.205Z,0
2017-07-22T01:16:11.130Z,0
2017-07-22T01:17:12.690Z,0
2017-07-22T01:19:06.349Z,0
2017-07-22T01:23:54.945Z,0
2017-07-22T01:24:56.502Z,0
2017-07-22T01:26:48.742Z,0
2017-07-22T01:27:50.292Z,0
2017-07-22T01:29:42.206Z,0
2017-07-22T01:30:43.763Z,0
2017-07-22T01:32:36.113Z,0
2017-07-22T01:33:37.668Z,0
2017-07-22T01:35:30.272Z,0
2017-07-22T01:36:31.815Z,0
2017-07-22T01:38:24.896Z,0
2017-07-22T01:39:26.457Z,0
2017-07-22T01:41:18.372Z,0
2017-07-22T01:42:19.929Z,0
2017-07-22T01:44:12.220Z,0
2017-07-22T01:45:13.762Z,0
2017-07-22T01:47:05.687Z,0
2017-07-22T01:48:07.232Z,0
2017-07-22T01:49:59.452Z,0
2017-07-22T01:51:01.007Z,0
2017-07-22T01:52:52.908Z,0
2017-07-22T01:53:54.458Z,0
2017-07-22T01:55:46.710Z,0
2017-07-22T01:56:48.259Z,0
2017-07-22T01:58:40.166Z,0
2017-07-22T01:59:41.723Z,0
2017-07-22T02:01:34.031Z,0
2017-07-22T02:02:35.577Z,0
2017-07-22T02:04:27.488Z,0
2017-07-22T02:05:30.515Z,0
2017-07-22T02:07:23.249Z,0
2017-07-22T02:08:24.807Z,0
2017-07-22T02:10:17.344Z,0
2017-07-22T02:11:18.894Z,0
2017-07-22T02:13:11.142Z,0
2017-07-22T02:14:12.688Z,0
2017-07-22T02:16:04.605Z,0
2017-07-22T02:17:06.155Z,0
2017-07-22T02:18:59.256Z,0
2017-07-22T02:20:00.800Z,0
2017-07-22T02:21:52.716Z,0
2017-07-22T02:22:54.261Z,0
2017-07-22T02:24:46.534Z,0
2017-07-22T02:25:48.093Z,0
2017-07-22T02:27:41.457Z,0
2017-07-22T02:28:42.984Z,0
2017-07-22T02:30:35.321Z,0
2017-07-22T02:31:36.874Z,0
2017-07-22T02:33:28.776Z,0
2017-07-22T02:34:30.332Z,0
2017-07-22T02:36:23.429Z,0
2017-07-22T02:37:24.986Z,0
2017-07-22T02:39:16.902Z,0
2017-07-22T02:40:18.832Z,0
2017-07-22T02:42:10.948Z,0
2017-07-22T02:43:12.522Z,0
2017-07-22T02:45:04.409Z,0
2017-07-22T02:46:05.960Z,0
2017-07-22T02:47:58.294Z,0
2017-07-22T02:48:59.844Z,0
2017-07-22T02:50:51.751Z,0
2017-07-22T02:51:53.301Z,0
2017-07-22T02:53:45.579Z,0
2017-07-22T02:54:47.130Z,0
2017-07-22T02:56:39.040Z,0
2017-07-22T02:57:40.590Z,0
2017-07-22T02:59:32.835Z,0
2017-07-22T03:00:34.387Z,0
2017-07-22T03:02:26.318Z,0
2017-07-22T03:03:27.851Z,0
2017-07-22T03:05:19.972Z,0
2017-07-22T03:06:21.521Z,0
2017-07-22T03:08:13.428Z,0
2017-07-22T03:09:14.978Z,0
2017-07-22T03:11:08.064Z,0
2017-07-22T03:12:09.617Z,0
2017-07-22T03:14:01.529Z,0
2017-07-22T03:15:03.080Z,0
2017-07-22T03:16:55.322Z,0
2017-07-22T03:17:56.873Z,0
2017-07-22T03:19:48.784Z,0
2017-07-22T03:20:50.333Z,0
2017-07-22T03:22:42.531Z,0
2017-07-22T03:23:44.977Z,0
2017-07-22T03:25:36.889Z,0
2017-07-22T03:26:38.442Z,0
2017-07-22T03:28:30.707Z,0
2017-07-22T03:29:32.890Z,0
2017-07-22T03:31:24.805Z,0
2017-07-22T03:32:26.357Z,0
2017-07-22T03:34:18.575Z,0
2017-07-22T03:35:20.124Z,0
2017-07-22T03:37:12.033Z,0
2017-07-22T03:38:14.376Z,0
2017-07-22T03:40:06.709Z,0
2017-07-22T03:41:09.156Z,0
2017-07-22T03:43:01.072Z,0
2017-07-22T03:44:02.627Z,0
2017-07-22T03:45:54.748Z,0
2017-07-22T03:46:56.299Z,0
2017-07-22T03:48:48.211Z,0
2017-07-22T03:49:49.761Z,0
2017-07-22T03:51:42.089Z,0
2017-07-22T03:52:43.638Z,0
2017-07-22T03:54:35.553Z,0
2017-07-22T03:55:37.101Z,0
2017-07-22T03:57:29.312Z,0
2017-07-22T03:58:30.863Z,0
2017-07-22T04:00:22.771Z,0
2017-07-22T04:01:24.323Z,0
2017-07-22T04:03:16.442Z,0
2017-07-22T04:04:17.989Z,0
2017-07-22T04:06:09.902Z,0
2017-07-22T04:07:11.450Z,0
2017-07-22T04:09:03.712Z,0
2017-07-22T04:10:05.264Z,0
2017-07-22T04:11:57.171Z,0
2017-07-22T04:12:58.722Z,0
2017-07-22T04:14:51.049Z,0
2017-07-22T04:15:52.722Z,0
2017-07-22T04:17:44.628Z,0
2017-07-22T04:18:46.176Z,0
2017-07-22T04:20:38.501Z,0
2017-07-22T04:21:40.053Z,0
2017-07-22T04:23:31.967Z,0
2017-07-22T04:24:33.514Z,0
2017-07-22T04:26:25.941Z,0
2017-07-22T04:27:27.492Z,0
2017-07-22T04:29:19.400Z,0
2017-07-22T04:30:20.951Z,0
2017-07-22T04:32:13.203Z,0
2017-07-22T04:33:14.751Z,0
2017-07-22T04:35:06.665Z,0
2017-07-22T04:36:08.215Z,0
2017-07-22T04:38:00.997Z,0
2017-07-22T04:39:02.547Z,0
2017-07-22T04:40:54.463Z,0
2017-07-22T04:41:56.542Z,0
2017-07-22T04:43:48.100Z,0
2017-07-22T04:44:49.651Z,0
2017-07-22T04:46:41.560Z,0
2017-07-22T04:47:43.117Z,0
2017-07-22T04:49:35.376Z,0
2017-07-22T04:50:36.926Z,0
2017-07-22T04:52:28.834Z,0
2017-07-22T04:53:30.383Z,0
2017-07-22T04:55:22.635Z,0
2017-07-22T04:56:24.189Z,0
2017-07-22T04:58:16.099Z,0
2017-07-22T04:59:18.053Z,0
2017-07-22T05:01:10.318Z,0
2017-07-22T05:02:11.868Z,0
2017-07-22T05:04:03.782Z,0
2017-07-22T05:05:06.040Z,0
2017-07-22T05:06:58.393Z,0
2017-07-22T05:08:00.884Z,0
2017-07-22T05:09:53.532Z,0
2017-07-22T05:10:55.084Z,0
2017-07-22T05:12:47.413Z,0
2017-07-22T05:13:48.965Z,0
2017-07-22T05:15:40.872Z,0
2017-07-22T05:16:43.021Z,0
2017-07-22T05:18:35.337Z,0
2017-07-22T05:19:37.696Z,0
2017-07-22T05:21:29.604Z,0
2017-07-22T05:22:31.155Z,0
2017-07-22T05:24:24.215Z,0
2017-07-22T05:27:17.633Z,0
2017-07-22T05:28:19.184Z,0
2017-07-22T05:30:11.511Z,0
2017-07-22T05:31:13.063Z,0
2017-07-22T05:33:05.841Z,0
2017-07-22T05:34:07.389Z,0
2017-07-22T05:35:59.591Z,0
2017-07-22T05:37:01.142Z,0
2017-07-22T05:38:53.052Z,0
2017-07-22T05:39:54.602Z,0
2017-07-22T05:41:46.714Z,0
2017-07-22T05:42:48.269Z,0
2017-07-22T05:44:40.178Z,0
2017-07-22T05:45:42.499Z,0
2017-07-22T05:47:34.820Z,0
2017-07-22T05:48:37.225Z,0
2017-07-22T05:50:29.862Z,0
2017-07-22T05:51:31.414Z,0
2017-07-22T05:53:23.529Z,0
2017-07-22T05:54:25.081Z,0
2017-07-22T05:56:16.993Z,0
2017-07-22T05:57:18.545Z,0
2017-07-22T05:59:10.836Z,0
2017-07-22T06:00:12.385Z,0
2017-07-22T06:02:04.292Z,0
2017-07-22T06:03:05.841Z,0
2017-07-22T06:04:58.173Z,0
2017-07-22T06:05:59.720Z,0
2017-07-22T06:07:51.636Z,0
2017-07-22T06:08:53.187Z,0
2017-07-22T06:10:45.410Z,0
2017-07-22T06:11:46.958Z,0
2017-07-22T06:13:38.872Z,0
2017-07-22T06:14:40.424Z,0
2017-07-22T06:16:33.827Z,0
2017-07-22T06:17:35.378Z,0
2017-07-22T06:19:27.936Z,0
2017-07-22T06:20:30.157Z,0
2017-07-22T06:22:22.378Z,0
2017-07-22T06:23:23.928Z,0
2017-07-22T06:25:15.834Z,0
2017-07-22T06:26:18.341Z,0
2017-07-22T06:28:10.460Z,0
2017-07-22T06:29:12.012Z,0
2017-07-22T06:31:03.916Z,0
2017-07-22T06:32:05.467Z,0
2017-07-22T06:33:57.687Z,0
2017-07-22T06:34:59.228Z,0
2017-07-22T06:36:51.228Z,0
2017-07-22T06:37:52.830Z,0
2017-07-22T06:39:45.653Z,0
2017-07-22T06:40:47.206Z,0
2017-07-22T06:42:39.111Z,0
2017-07-22T06:43:40.660Z,0
2017-07-22T06:45:33.710Z,0
2017-07-22T06:46:35.254Z,0
2017-07-22T06:48:27.162Z,0
2017-07-22T06:49:28.711Z,0
2017-07-22T06:51:21.035Z,0
2017-07-22T06:52:22.586Z,0
2017-07-22T06:54:14.492Z,0
2017-07-22T06:55:16.044Z,0
2017-07-22T06:57:08.364Z,0
2017-07-22T06:58:10.493Z,0
2017-07-22T07:00:02.859Z,0
2017-07-22T07:01:04.411Z,0
2017-07-22T07:02:57.635Z,0
2017-07-22T15:53:33.370Z,0
2017-07-22T15:54:35.594Z,0
2017-07-22T15:56:27.230Z,0
2017-07-22T15:57:28.826Z,0
2017-07-22T15:59:20.964Z,0
2017-07-22T16:00:22.555Z,0
2017-07-22T16:02:14.316Z,0
2017-07-22T16:03:15.911Z,0
2017-07-22T16:04:17.507Z,0
2017-07-22T16:05:19.106Z,0
2017-07-22T16:06:20.703Z,0
2017-07-22T16:07:22.303Z,0
2017-07-22T16:08:24.441Z,0
2017-07-22T16:09:26.070Z,0
2017-07-22T16:10:27.661Z,0
2017-07-22T16:11:29.266Z,0
2017-07-22T16:12:30.863Z,0
2017-07-22T16:13:33.171Z,0
2017-07-22T16:14:34.760Z,0
2017-07-22T16:15:36.359Z,0
2017-07-22T16:16:38.828Z,0
2017-07-22T16:17:40.469Z,0
2017-07-22T16:18:43.032Z,0
2017-07-22T16:19:45.289Z,0
2017-07-22T16:20:46.888Z,0
2017-07-22T16:21:48.488Z,0
2017-07-22T16:22:50.089Z,0
2017-07-22T16:23:51.700Z,0
2017-07-22T16:24:53.307Z,0
2017-07-22T16:25:54.900Z,0
2017-07-22T16:26:56.494Z,0
2017-07-22T16:27:58.095Z,0
2017-07-22T16:29:00.590Z,0
2017-07-22T16:30:04.028Z,0
2017-07-22T16:31:06.430Z,0
2017-07-22T16:32:08.740Z,0
2017-07-22T16:33:12.008Z,0
2017-07-22T16:34:15.206Z,0
2017-07-22T16:35:17.368Z,0
2017-07-22T16:36:20.796Z,0
2017-07-22T16:37:24.745Z,0
2017-07-22T16:38:27.870Z,0
2017-07-22T16:39:30.505Z,0
2017-07-22T16:40:34.237Z,0
2017-07-22T16:41:37.695Z,0
2017-07-22T16:42:41.565Z,0
2017-07-22T16:43:44.174Z,0
2017-07-22T16:44:46.723Z,0
2017-07-22T16:45:49.369Z,0
2017-07-22T16:46:52.218Z,0
2017-07-22T16:47:55.672Z,0
2017-07-22T16:48:58.167Z,0
2017-07-22T16:50:00.317Z,0
2017-07-22T16:51:02.530Z,0
2017-07-22T16:52:04.633Z,0
2017-07-22T16:53:06.551Z,0
2017-07-22T16:54:08.851Z,0
2017-07-22T16:55:12.294Z,0
2017-07-22T16:56:14.623Z,0
2017-07-22T16:59:59.925Z,61
2017-07-22T17:01:02.334Z,90
2017-07-22T17:02:04.733Z,78
2017-07-22T17:03:08.056Z,56
2017-07-22T17:04:10.352Z,112
2017-07-22T17:05:12.682Z,106
2017-07-22T17:06:15.582Z,101
2017-07-22T17:07:18.624Z,90
2017-07-22T17:08:21.786Z,84
2017-07-22T17:09:24.293Z,78
2017-07-22T17:10:27.748Z,78
2017-07-22T17:11:30.351Z,78
2017-07-22T17:12:33.688Z,78
2017-07-22T17:13:37.027Z,84
2017-07-22T17:14:40.415Z,78
2017-07-22T17:15:44.702Z,73
2017-07-22T17:16:49.082Z,61
2017-07-22T17:17:53.599Z,56
2017-07-22T17:18:56.285Z,56
2017-07-22T17:20:00.043Z,56
2017-07-22T17:21:03.713Z,61
2017-07-22T17:22:06.407Z,67
2017-07-22T17:23:08.495Z,73
2017-07-22T17:24:10.635Z,84
2017-07-22T17:25:12.624Z,84
2017-07-22T17:26:16.168Z,78
2017-07-22T17:27:18.697Z,78
2017-07-22T17:28:21.761Z,90
2017-07-22T17:29:24.106Z,84
2017-07-22T17:30:26.632Z,78
2017-07-22T17:31:30.069Z,73
2017-07-22T17:32:32.732Z,67
2017-07-22T17:33:35.683Z,45
2017-07-22T17:34:37.711Z,61
2017-07-22T17:35:39.420Z,61
2017-07-22T17:36:42.581Z,56
2017-07-22T17:37:44.950Z,56
2017-07-22T17:38:47.767Z,56
2017-07-22T17:39:50.442Z,56
2017-07-22T17:40:53.760Z,61
2017-07-22T17:41:56.225Z,50
2017-07-22T17:42:58.459Z,61
2017-07-22T17:44:02.332Z,67
2017-07-22T17:45:04.715Z,67
2017-07-22T17:46:06.868Z,73
2017-07-22T17:47:09.202Z,73
2017-07-22T17:48:11.897Z,73
2017-07-22T17:49:14.383Z,73
2017-07-22T17:50:17.518Z,73
2017-07-22T17:51:20.816Z,73
2017-07-22T17:52:27.830Z,67
2017-07-22T17:53:32.374Z,67
2017-07-22T17:54:34.729Z,61
2017-07-22T17:55:36.639Z,56
2017-07-22T17:56:40.026Z,50
2017-07-22T17:57:42.633Z,50
2017-07-22T17:58:45.900Z,45
2017-07-22T17:59:48.610Z,39
2017-07-22T18:00:52.086Z,39
2017-07-22T18:01:55.814Z,39
2017-07-22T18:02:58.870Z,39
2017-07-22T18:04:01.979Z,39
2017-07-22T18:05:05.521Z,39
2017-07-22T18:06:08.238Z,39
2017-07-22T18:07:10.143Z,39
2017-07-22T18:08:12.539Z,33
2017-07-22T18:09:15.072Z,33
2017-07-22T18:10:18.158Z,33
2017-07-22T18:11:20.945Z,33
2017-07-22T18:12:24.162Z,33
2017-07-22T18:13:26.650Z,33
2017-07-22T18:14:29.812Z,33
2017-07-22T18:15:32.260Z,33
2017-07-22T18:16:34.634Z,33
2017-07-22T18:17:38.006Z,33
2017-07-22T18:18:40.166Z,33
2017-07-22T18:19:42.943Z,33
2017-07-22T18:20:45.810Z,28
2017-07-22T18:21:48.349Z,28
2017-07-22T18:22:51.139Z,28
2017-07-22T18:23:54.256Z,28
2017-07-22T18:24:56.765Z,28
2017-07-22T18:26:00.150Z,28
2017-07-22T18:27:02.748Z,28
2017-07-22T18:28:07.590Z,28
2017-07-22T18:29:10.143Z,28
2017-07-22T18:30:12.530Z,28
2017-07-22T18:31:16.010Z,22
2017-07-22T18:32:18.647Z,22
2017-07-22T18:37:34.725Z,22
2017-07-22T18:38:36.321Z,22
2017-07-22T18:40:27.983Z,16
2017-07-22T18:41:29.594Z,16
2017-07-22T18:43:21.565Z,16
2017-07-22T18:44:23.164Z,16
2017-07-22T18:46:14.816Z,16
2017-07-22T18:47:16.416Z,16
2017-07-22T18:49:08.264Z,11
2017-07-22T18:50:09.862Z,11
2017-07-22T18:52:02.375Z,11
2017-07-22T18:53:03.978Z,11
2017-07-22T18:54:55.932Z,11
2017-07-22T18:55:57.532Z,11
2017-07-22T18:57:49.186Z,11
2017-07-22T18:58:50.788Z,11
2017-07-22T19:00:42.779Z,11
2017-07-22T19:01:44.379Z,5
2017-07-22T19:03:36.037Z,5
2017-07-22T19:04:37.640Z,5
2017-07-22T19:06:29.706Z,5
2017-07-22T19:07:31.306Z,5
2017-07-22T19:09:22.955Z,5
2017-07-22T19:10:24.556Z,5
2017-07-22T19:12:16.996Z,5
2017-07-22T19:13:18.594Z,5
2017-07-22T19:15:10.250Z,5
2017-07-22T19:16:11.851Z,5
2017-07-22T19:18:03.933Z,5
2017-07-22T19:19:06.461Z,5
2017-07-22T19:20:58.107Z,0
2017-07-22T19:21:59.702Z,0
2017-07-22T19:23:51.729Z,0
2017-07-22T19:24:53.457Z,0
2017-07-22T19:26:45.111Z,0
2017-07-22T19:27:46.716Z,0
2017-07-22T19:29:39.448Z,0
2017-07-22T19:30:41.051Z,0
2017-07-22T19:32:32.710Z,0
2017-07-22T19:33:34.327Z,0
2017-07-22T19:35:26.178Z,0
2017-07-22T19:36:27.778Z,0
2017-07-22T19:38:19.434Z,0
2017-07-22T19:39:21.033Z,0
2017-07-22T19:41:12.900Z,0
2017-07-22T19:42:14.505Z,0
2017-07-22T19:44:06.158Z,0
2017-07-22T19:45:07.761Z,0
2017-07-22T19:46:59.815Z,0
2017-07-22T19:48:01.412Z,0
2017-07-22T19:49:53.220Z,0
2017-07-22T19:50:54.817Z,0
2017-07-22T19:52:46.686Z,0
2017-07-22T19:53:48.282Z,0
2017-07-22T19:55:39.934Z,0
2017-07-22T19:56:41.530Z,0
2017-07-22T19:58:33.576Z,0
2017-07-22T19:59:35.174Z,0
2017-07-22T21:31:26.356Z,0
2017-07-22T21:32:27.951Z,0
2017-07-22T21:33:29.544Z,0
2017-07-22T21:34:31.137Z,0
2017-07-22T21:35:32.739Z,0
2017-07-22T21:36:34.334Z,0
2017-07-22T21:37:35.932Z,0
2017-07-22T21:38:37.530Z,0
2017-07-22T21:39:39.123Z,0
2017-07-22T21:40:40.763Z,0
2017-07-22T21:41:42.370Z,0
2017-07-22T21:42:44.486Z,0
2017-07-22T21:43:46.083Z,0
2017-07-22T21:44:47.687Z,0
2017-07-22T21:45:49.283Z,0
2017-07-22T21:46:50.878Z,0
2017-07-22T21:47:52.473Z,0
2017-07-22T21:48:54.679Z,0
2017-07-22T21:49:56.896Z,0
2017-07-22T21:50:58.773Z,0
2017-07-22T21:52:01.594Z,0
2017-07-22T21:53:05.757Z,0
2017-07-22T21:54:08.495Z,0
2017-07-22T21:55:10.896Z,0
2017-07-22T21:56:14.609Z,0
2017-07-22T21:57:16.837Z,0
2017-07-22T21:58:19.485Z,0
2017-07-22T21:59:21.683Z,0
2017-07-22T22:00:24.462Z,0
2017-07-22T22:01:27.023Z,0
2017-07-22T22:02:30.307Z,0
2017-07-22T22:03:32.961Z,0
2017-07-22T22:04:36.154Z,0
2017-07-22T22:05:38.771Z,0
2017-07-22T22:06:42.477Z,0
2017-07-22T22:07:45.030Z,0
2017-07-22T22:08:47.807Z,0
2017-07-22T22:09:50.217Z,0
2017-07-22T22:10:53.075Z,0
2017-07-22T22:11:55.596Z,0
2017-07-22T22:12:58.117Z,0
2017-07-22T22:14:01.251Z,0
2017-07-22T22:15:04.389Z,0
2017-07-22T22:16:07.943Z,0
2017-07-22T22:17:11.895Z,0
2017-07-22T22:18:13.540Z,0
2017-07-22T22:19:17.374Z,0
2017-07-22T22:20:20.601Z,0
2017-07-22T22:21:26.807Z,0
2017-07-22T22:22:29.330Z,0
2017-07-22T22:23:31.657Z,0
2017-07-22T22:24:33.960Z,0
2017-07-22T22:25:36.012Z,0
2017-07-22T22:26:39.445Z,0
2017-07-22T22:27:43.676Z,0
2017-07-22T22:28:48.950Z,0
2017-07-22T22:29:52.664Z,0
2017-07-22T22:30:56.766Z,0
2017-07-22T22:32:00.176Z,0
2017-07-22T22:33:05.685Z,0
2017-07-22T22:34:09.902Z,0
2017-07-22T22:35:14.153Z,0
2017-07-22T22:36:18.012Z,0
2017-07-22T22:37:22.201Z,0
2017-07-22T22:38:25.932Z,0
2017-07-22T22:39:29.613Z,0
2017-07-22T22:40:34.445Z,0
2017-07-22T22:41:38.371Z,0
2017-07-22T22:42:40.786Z,0
2017-07-22T22:43:43.711Z,0
2017-07-22T22:44:48.376Z,0
2017-07-22T22:45:50.664Z,0
2017-07-22T22:46:54.048Z,0
2017-07-22T22:47:56.982Z,0
2017-07-22T22:49:00.043Z,0
2017-07-22T22:50:03.667Z,0
2017-07-22T22:51:07.734Z,0
2017-07-22T22:52:11.825Z,0
2017-07-22T22:53:15.740Z,0
2017-07-22T22:54:19.636Z,0
2017-07-22T22:55:22.538Z,0
2017-07-22T22:56:25.924Z,0
2017-07-22T22:57:30.514Z,0
2017-07-22T22:58:32.061Z,0
2017-07-22T22:59:33.661Z,0
2017-07-22T23:00:35.269Z,0
2017-07-22T23:01:36.866Z,0
2017-07-22T23:02:38.466Z,0
2017-07-22T23:03:40.072Z,0
2017-07-22T23:04:42.476Z,0
2017-07-22T23:05:44.075Z,0
2017-07-22T23:06:45.689Z,0
2017-07-22T23:07:47.292Z,0
2017-07-22T23:08:49.545Z,0
2017-07-22T23:09:51.145Z,0
2017-07-22T23:10:52.743Z,0
2017-07-22T23:11:54.347Z,0
2017-07-22T23:12:55.949Z,0
2017-07-22T23:13:57.547Z,0
2017-07-22T23:14:59.143Z,0
2017-07-22T23:16:02.474Z,0
2017-07-22T23:17:04.079Z,0
2017-07-22T23:18:05.681Z,0
2017-07-22T23:19:08.053Z,0
2017-07-22T23:20:09.654Z,0
2017-07-22T23:21:11.259Z,0
2017-07-22T23:22:12.854Z,0
2017-07-22T23:23:14.451Z,0
2017-07-22T23:24:16.065Z,0
2017-07-22T23:25:17.650Z,0
2017-07-22T23:26:19.253Z,0
2017-07-22T23:27:20.854Z,0
2017-07-22T23:28:22.456Z,0
2017-07-22T23:29:24.056Z,0
2017-07-22T23:30:25.651Z,0
2017-07-22T23:31:27.249Z,0
2017-07-22T23:32:28.846Z,0
2017-07-22T23:33:30.445Z,0
2017-07-22T23:34:32.075Z,0
2017-07-22T23:35:33.677Z,0
2017-07-22T23:36:36.118Z,0
2017-07-22T23:37:38.279Z,0
2017-07-22T23:38:39.934Z,0
2017-07-22T23:39:41.533Z,0
2017-07-22T23:40:44.094Z,0
2017-07-22T23:41:45.764Z,0
2017-07-22T23:42:47.364Z,0
2017-07-22T23:43:48.961Z,0
2017-07-22T23:44:50.624Z,0
2017-07-22T23:45:52.227Z,0
2017-07-22T23:46:53.824Z,0
2017-07-22T23:47:56.030Z,0
2017-07-22T23:48:57.629Z,0
2017-07-22T23:49:59.229Z,0
2017-07-22T23:51:00.826Z,0
2017-07-22T23:52:02.425Z,0
2017-07-22T23:53:04.025Z,0
2017-07-22T23:54:05.624Z,0
2017-07-22T23:55:07.223Z,0
2017-07-22T23:56:08.827Z,0
2017-07-22T23:57:10.433Z,0
2017-07-22T23:58:12.029Z,0
2017-07-22T23:59:13.628Z,0
